createdAt,value
2018-12-15T00:03:00.000Z,0.8
2018-12-15T00:08:00.000Z,0.7
2018-12-15T00:13:00.000Z,0.7
2018-12-15T00:18:00.000Z,0.6
2018-12-15T00:23:00.000Z,0.6
2018-12-15T00:28:00.000Z,0.6
2018-12-15T00:33:00.000Z,0.6
2018-12-15T00:38:00.000Z,0.6
2018-12-15T00:43:00.000Z,0.7
2018-12-15T00:48:00.000Z,0.7
2018-12-15T00:53:00.000Z,0.7
2018-12-15T00:58:00.000Z,0.7
2018-12-15T01:03:00.000Z,0.6
2018-12-15T01:08:00.000Z,0.7
2018-12-15T01:13:00.000Z,0.6
2018-12-15T01:18:00.000Z,0.6
2018-12-15T01:23:00.000Z,0.6
2018-12-15T01:28:00.000Z,0.6
2018-12-15T01:33:00.000Z,0.6
2018-12-15T01:38:00.000Z,0.6
2018-12-15T01:43:00.000Z,0.5
2018-12-15T01:48:00.000Z,0.4
2018-12-15T01:53:00.000Z,0.4
2018-12-15T01:58:00.000Z,0.4
2018-12-15T02:03:00.000Z,0.4
2018-12-15T02:08:00.000Z,0.4
2018-12-15T02:13:00.000Z,0.4
2018-12-15T02:18:00.000Z,0.4
2018-12-15T02:23:00.000Z,0.4
2018-12-15T02:28:00.000Z,0.4
2018-12-15T02:33:00.000Z,0.4
2018-12-15T02:38:00.000Z,0.3
2018-12-15T02:43:00.000Z,0.3
2018-12-15T02:48:00.000Z,0.3
2018-12-15T02:53:00.000Z,0.3
2018-12-15T02:58:00.000Z,0.3
2018-12-15T03:03:00.000Z,0.2
2018-12-15T03:08:00.000Z,0.2
2018-12-15T03:13:00.000Z,0.2
2018-12-15T03:18:00.000Z,0.1
2018-12-15T03:23:00.000Z,0.1
2018-12-15T03:28:00.000Z,0.1
2018-12-15T03:33:00.000Z,0.1
2018-12-15T03:38:00.000Z,0.1
2018-12-15T03:43:00.000Z,0.1
2018-12-15T03:48:00.000Z,0.1
2018-12-15T03:53:00.000Z,0.1
2018-12-15T03:58:00.000Z,0.1
2018-12-15T04:03:00.000Z,0.1
2018-12-15T04:08:00.000Z,0.1
2018-12-15T04:13:00.000Z,0.1
2018-12-15T04:18:00.000Z,0.1
2018-12-15T04:23:00.000Z,0.1
2018-12-15T04:28:00.000Z,0.1
2018-12-15T04:33:00.000Z,0.1
2018-12-15T04:38:00.000Z,0.1
2018-12-15T04:43:00.000Z,0.2
2018-12-15T04:48:00.000Z,0.2
2018-12-15T04:53:00.000Z,0.2
2018-12-15T04:58:00.000Z,0.2
2018-12-15T05:03:00.000Z,0.2
2018-12-15T05:08:00.000Z,0.1
2018-12-15T05:13:00.000Z,0.1
2018-12-15T05:18:00.000Z,0.1
2018-12-15T05:23:00.000Z,0.1
2018-12-15T05:28:00.000Z,0.1
2018-12-15T05:34:00.000Z,0.1
2018-12-15T05:39:00.000Z,0.1
2018-12-15T05:44:00.000Z,0.1
2018-12-15T05:49:00.000Z,0.0
2018-12-15T05:54:00.000Z,0.0
2018-12-15T05:59:00.000Z,-0.1
2018-12-15T06:04:00.000Z,-0.1
2018-12-15T06:09:00.000Z,-0.2
2018-12-15T06:14:00.000Z,-0.2
2018-12-15T06:19:00.000Z,-0.2
2018-12-15T06:24:00.000Z,-0.3
2018-12-15T06:29:00.000Z,-0.3
2018-12-15T06:34:00.000Z,-0.3
2018-12-15T06:39:00.000Z,-0.4
2018-12-15T06:44:00.000Z,-0.5
2018-12-15T06:49:00.000Z,-0.5
2018-12-15T06:54:00.000Z,-0.6
2018-12-15T06:59:00.000Z,-0.5
2018-12-15T07:04:00.000Z,-0.5
2018-12-15T07:09:00.000Z,-0.5
2018-12-15T07:14:00.000Z,-0.4
2018-12-15T07:19:00.000Z,-0.4
2018-12-15T07:24:00.000Z,-0.3
2018-12-15T07:29:00.000Z,-0.3
2018-12-15T07:34:00.000Z,-0.3
2018-12-15T07:39:00.000Z,-0.3
2018-12-15T07:44:00.000Z,-0.3
2018-12-15T07:49:00.000Z,-0.3
2018-12-15T07:54:00.000Z,-0.3
2018-12-15T07:59:00.000Z,-0.3
2018-12-15T08:04:00.000Z,-0.3
2018-12-15T08:09:00.000Z,-0.2
2018-12-15T08:14:00.000Z,-0.3
2018-12-15T08:19:00.000Z,-0.2
2018-12-15T08:24:00.000Z,-0.2
2018-12-15T08:29:00.000Z,-0.1
2018-12-15T08:34:00.000Z,-0.1
2018-12-15T08:39:00.000Z,0.0
2018-12-15T08:44:00.000Z,0.1
2018-12-15T08:49:00.000Z,0.2
2018-12-15T08:54:00.000Z,0.1
2018-12-15T08:59:00.000Z,0.1
2018-12-15T09:04:00.000Z,0.1
2018-12-15T09:09:00.000Z,0.1
2018-12-15T09:14:00.000Z,0.1
2018-12-15T09:19:00.000Z,0.1
2018-12-15T09:24:00.000Z,0.2
2018-12-15T09:29:00.000Z,0.2
2018-12-15T09:34:00.000Z,0.2
2018-12-15T09:39:00.000Z,0.3
2018-12-15T09:44:00.000Z,0.3
2018-12-15T09:49:00.000Z,0.3
2018-12-15T09:54:00.000Z,0.3
2018-12-15T09:59:00.000Z,0.3
2018-12-15T10:04:00.000Z,0.2
2018-12-15T10:09:00.000Z,0.2
2018-12-15T10:14:00.000Z,0.2
2018-12-15T10:19:00.000Z,0.2
2018-12-15T10:24:00.000Z,0.2
2018-12-15T10:29:00.000Z,0.3
2018-12-15T10:34:00.000Z,0.4
2018-12-15T10:39:00.000Z,0.6
2018-12-15T10:44:00.000Z,0.7
2018-12-15T10:49:00.000Z,0.7
2018-12-15T10:54:00.000Z,0.7
2018-12-15T10:59:00.000Z,0.6
2018-12-15T11:04:00.000Z,0.6
2018-12-15T11:09:00.000Z,0.7
2018-12-15T11:14:00.000Z,0.7
2018-12-15T11:19:00.000Z,0.7
2018-12-15T11:24:00.000Z,0.8
2018-12-15T11:29:00.000Z,0.8
2018-12-15T11:34:00.000Z,0.8
2018-12-15T11:39:00.000Z,0.8
2018-12-15T11:45:00.000Z,0.8
2018-12-15T11:50:00.000Z,0.8
2018-12-15T11:55:00.000Z,0.7
2018-12-15T12:00:00.000Z,0.7
2018-12-15T12:05:00.000Z,0.7
2018-12-15T12:10:00.000Z,0.7
2018-12-15T12:15:00.000Z,0.7
2018-12-15T12:20:00.000Z,0.7
2018-12-15T12:25:00.000Z,0.7
2018-12-15T12:30:00.000Z,0.8
2018-12-15T12:35:00.000Z,0.8
2018-12-15T12:40:00.000Z,0.9
2018-12-15T12:45:00.000Z,0.9
2018-12-15T12:50:00.000Z,0.9
2018-12-15T12:55:00.000Z,0.9
2018-12-15T13:00:00.000Z,0.9
2018-12-15T13:05:00.000Z,0.9
2018-12-15T13:10:00.000Z,0.9
2018-12-15T13:15:00.000Z,0.8
2018-12-15T13:20:00.000Z,0.8
2018-12-15T13:25:00.000Z,0.8
2018-12-15T13:30:00.000Z,0.8
2018-12-15T13:35:00.000Z,0.7
2018-12-15T13:40:00.000Z,0.7
2018-12-15T13:45:00.000Z,0.7
2018-12-15T13:50:00.000Z,0.7
2018-12-15T13:55:00.000Z,0.7
2018-12-15T14:00:00.000Z,0.6
2018-12-15T14:05:00.000Z,0.6
2018-12-15T14:10:00.000Z,0.5
2018-12-15T14:15:00.000Z,0.5
2018-12-15T14:20:00.000Z,0.5
2018-12-15T14:25:00.000Z,0.5
2018-12-15T14:30:00.000Z,0.5
2018-12-15T14:35:00.000Z,0.5
2018-12-15T14:40:00.000Z,0.5
2018-12-15T14:45:00.000Z,0.5
2018-12-15T14:50:00.000Z,0.5
2018-12-15T14:55:00.000Z,0.5
2018-12-15T15:00:00.000Z,0.4
2018-12-15T15:05:00.000Z,0.4
2018-12-15T15:10:00.000Z,0.5
2018-12-15T15:15:00.000Z,0.5
2018-12-15T15:20:00.000Z,0.4
2018-12-15T15:25:00.000Z,0.4
2018-12-15T15:30:00.000Z,0.3
2018-12-15T15:35:00.000Z,0.3
2018-12-15T15:40:00.000Z,0.2
2018-12-15T15:45:00.000Z,0.2
2018-12-15T15:50:00.000Z,0.2
2018-12-15T15:55:00.000Z,0.2
2018-12-15T16:00:00.000Z,0.3
2018-12-15T16:05:00.000Z,0.3
2018-12-15T16:10:00.000Z,0.2
2018-12-15T16:15:00.000Z,0.2
2018-12-15T16:20:00.000Z,0.3
2018-12-15T16:25:00.000Z,0.3
2018-12-15T16:30:00.000Z,0.3
2018-12-15T16:35:00.000Z,0.3
2018-12-15T16:40:00.000Z,0.3
2018-12-15T16:45:00.000Z,0.4
2018-12-15T16:50:00.000Z,0.4
2018-12-15T16:55:00.000Z,0.4
2018-12-15T17:00:00.000Z,0.4
2018-12-15T17:05:00.000Z,0.4
2018-12-15T17:10:00.000Z,0.4
2018-12-15T17:15:00.000Z,0.4
2018-12-15T17:20:00.000Z,0.5
2018-12-15T17:25:00.000Z,0.4
2018-12-15T17:30:00.000Z,0.4
2018-12-15T17:35:00.000Z,0.4
2018-12-15T17:40:00.000Z,0.3
2018-12-15T17:46:00.000Z,0.3
2018-12-15T17:51:00.000Z,0.3
2018-12-15T17:56:00.000Z,0.3
2018-12-15T18:01:00.000Z,0.4
2018-12-15T18:06:00.000Z,0.4
2018-12-15T18:11:00.000Z,0.4
2018-12-15T18:16:00.000Z,0.4
2018-12-15T18:21:00.000Z,0.4
2018-12-15T18:26:00.000Z,0.4
2018-12-15T18:31:00.000Z,0.5
2018-12-15T18:36:00.000Z,0.5
2018-12-15T18:41:00.000Z,0.5
2018-12-15T18:46:00.000Z,0.5
2018-12-15T18:51:00.000Z,0.5
2018-12-15T18:56:00.000Z,0.5
2018-12-15T19:01:00.000Z,0.5
2018-12-15T19:06:00.000Z,0.5
2018-12-15T19:11:00.000Z,0.4
2018-12-15T19:16:00.000Z,0.4
2018-12-15T19:21:00.000Z,0.4
2018-12-15T19:26:00.000Z,0.4
2018-12-15T19:31:00.000Z,0.3
2018-12-15T19:36:00.000Z,0.3
2018-12-15T19:41:00.000Z,0.3
2018-12-15T19:46:00.000Z,0.3
2018-12-15T19:51:00.000Z,0.2
2018-12-15T19:56:00.000Z,0.2
2018-12-15T20:01:00.000Z,0.2
2018-12-15T20:06:00.000Z,0.2
2018-12-15T20:11:00.000Z,0.2
2018-12-15T20:16:00.000Z,0.2
2018-12-15T20:21:00.000Z,0.3
2018-12-15T20:26:00.000Z,0.3
2018-12-15T20:31:00.000Z,0.2
2018-12-15T20:36:00.000Z,0.2
2018-12-15T20:41:00.000Z,0.2
2018-12-15T20:46:00.000Z,0.2
2018-12-15T20:51:00.000Z,0.3
2018-12-15T20:56:00.000Z,0.3
2018-12-15T21:01:00.000Z,0.2
2018-12-15T21:06:00.000Z,0.2
2018-12-15T21:11:00.000Z,0.3
2018-12-15T21:16:00.000Z,0.3
2018-12-15T21:21:00.000Z,0.2
2018-12-15T21:26:00.000Z,0.2
2018-12-15T21:31:00.000Z,0.2
2018-12-15T21:36:00.000Z,0.2
2018-12-15T21:41:00.000Z,0.2
2018-12-15T21:46:00.000Z,0.2
2018-12-15T21:51:00.000Z,0.2
2018-12-15T21:57:00.000Z,0.3
2018-12-15T22:02:00.000Z,0.3
2018-12-15T22:07:00.000Z,0.3
2018-12-15T22:12:00.000Z,0.3
2018-12-15T22:17:00.000Z,0.3
2018-12-15T22:22:00.000Z,0.3
2018-12-15T22:27:00.000Z,0.3
2018-12-15T22:32:00.000Z,0.4
2018-12-15T22:37:00.000Z,0.4
2018-12-15T22:42:00.000Z,0.4
2018-12-15T22:47:00.000Z,0.4
2018-12-15T22:52:00.000Z,0.5
2018-12-15T22:57:00.000Z,0.4
2018-12-15T23:02:00.000Z,0.3
2018-12-15T23:07:00.000Z,0.3
2018-12-15T23:12:00.000Z,0.2
2018-12-15T23:17:00.000Z,0.2
2018-12-15T23:22:00.000Z,0.2
2018-12-15T23:27:00.000Z,0.2
2018-12-15T23:32:00.000Z,0.2
2018-12-15T23:37:00.000Z,0.1
2018-12-15T23:42:00.000Z,0.0
2018-12-15T23:47:00.000Z,-0.0
2018-12-15T23:52:00.000Z,-0.1
2018-12-15T23:57:00.000Z,-0.0
